Warning: Javascript must be enabled to use all the features on this page!


Page Loading - Please Wait...

Click to hideNews Bulletins

Peak Streamflow for the Nation

USGS 01365500 CHESTNUT CREEK AT GRAHAMSVILLE NY

Sullivan County, New York
Hydrologic Unit Code 02020007
Latitude  41°50'42", Longitude  74°32'22" NAD83
Drainage area 20.9  square miles
Gage datum 878.96 feet above NGVD29
Output formats
Table
Graph
Tab-separated file
peakfq (watstore) format
Reselect output format
Water
Year
Date Gage
Height
(feet)
Stream-
flow
(cfs)
1939 1938-12-06 2.453 895
1940 1940-03-31 2.573 874
1941 1940-12-28 2.943 803
1942 1941-12-24 3.303 1,650
1943 1942-12-30 2.722,3 872
1944 1943-11-09 2.903 890
1945 1945-07-19 4.073 2,200
1946 1946-03-09 2.643 340
1947 1947-04-05 3.213 1,080
1948 1947-11-08 2.842,3 902
1949 1948-12-30 3.853 2,060
1950 1950-03-28 2.853 572
1951 1950-11-25   3,9002
1952 1952-07-10 4.443 3,320
1953 1952-12-11 3.113 897
1954 1954-05-10 2.603 492
1955 1955-08-18 4.683 3,8009
1956 1955-10-15 5.023 4,640
1957 1957-04-06 2.683 680
1958 1957-12-20 3.883 2,190
1959 1959-04-02 3.213 1,230
1960 1960-04-04 3.723 1,920
1961 1961-04-25 2.893 871
1962 1962-04-07 2.663 668
1963 1963-03-27 2.853 835
1964 1964-03-10 3.013 990
1965 1965-02-08 2.032,3 311
1966 1966-06-10 2.853 835
1967 1967-04-02 2.043 315
1968 1968-05-29 3.453 1,510
1969 1969-07-28 4.603 3,630
1970 1970-04-02 3.193 1,180
1971 1970-10-23 2.993 970
1972 1972-03-22 2.713 709
1973 1973-06-29 4.573 3,560
1974 1973-12-21 3.081,3 1,5002
1975 1975-07-20 4.303 4,310
1976 1976-01-27 2.453 998
1977 1977-03-14 2.993 1,570
1978 1978-01-09 3.023 1,600
1979 1979-09-06 2.312,3 754
1980 1980-03-21 3.173 1,830
1981 1981-02-20 2.723 1,190
1982 1982-04-18 2.393 829
1983 1983-04-16 2.703 1,110
1984 1984-04-05 2.573 1,330
1985 1985-03-12 2.283 794
1986 1986-03-14 2.643 1,270
1987 1987-04-04 4.203 2,140
1999 1999-09-16 4.936 1,9609
2000 2000-06-06 4.43 1,100
2001 2000-12-17 4.77 1,690
2002 2002-03-26 3.81 555
2003 2003-09-23 4.16 697
2004 2004-09-18 5.05 1,730
2005 2005-04-02 5.67 2,950
2006 2006-06-28 4.88 2,820
2007 2007-04-16 4.24 1,850
2008 2008-02-07 3.87 1,430
2009 2009-07-30 3.71 1,260
2010 2010-03-14 3.41 986
2011 2011-08-28 4.75 2,6009
2012 2012-09-18 4.56 2,310
2013 2012-12-21 3.79 1,430
2014 2014-07-15 3.32 1,040
2015 2015-09-30 2.97 772
2016 2016-02-24 4.23 1,960
2017 2017-04-06 3.02 807
2018 2018-07-23 4.08 1,720
2019 2018-10-02 3.25 840R
2020 2019-11-01 4.01 1,590
?
  Peak Gage-Height Qualification Codes.
?
  Peak Streamflow Qualification Codes.